Time;durP1;ratioP1;P1;durP2;ratioP2;P2;SDS_P1;SDS_P2;PMS_P1;PMS_P2;Temp;Humidity;BMP_temperature;BMP_pressure;BME280_temperature;BME280_humidity;BME280_pressure;Samples;Min_cycle;Max_cycle;Signal;HPM_P1;HPM_P2
2021/11/21 00:00:28;;;;;;;;;;;3.40;99.90;;;;;;5064950;28;20416;-53
2021/11/21 00:02:55;;;;;;;;;;;3.50;99.90;;;;;;5067406;28;19929;-54
2021/11/21 00:05:22;;;;;;;;;;;3.40;99.90;;;;;;5054331;28;20345;-55
2021/11/21 00:07:49;;;;;;;;;;;3.40;99.90;;;;;;5053113;28;19978;-54
2021/11/21 00:10:15;;;;;;;;;;;3.40;99.90;;;;;;5056281;28;19929;-53
2021/11/21 00:12:42;;;;;;;;;;;3.40;99.90;;;;;;5072559;28;19932;-54
2021/11/21 00:15:10;;;;;;;;;;;3.70;99.90;;;;;;5072958;28;19924;-56
2021/11/21 00:17:38;;;;;;;;;;;3.60;99.90;;;;;;5072781;28;19970;-53
2021/11/21 00:20:05;;;;;;;;;;;3.70;99.90;;;;;;5071931;28;19929;-53
2021/11/21 00:22:35;;;;;;;;;;;3.50;99.90;;;;;;5072724;28;19978;-54
2021/11/21 00:25:02;;;;;;;;;;;3.50;99.90;;;;;;5072776;28;19975;-55
2021/11/21 00:27:28;;;;;;;;;;;3.60;99.90;;;;;;5072759;28;19924;-54
2021/11/21 00:29:55;;;;;;;;;;;3.70;99.90;;;;;;5072306;28;19932;-55
2021/11/21 00:32:22;;;;;;;;;;;3.70;99.90;;;;;;5072733;28;19925;-53
2021/11/21 00:34:50;;;;;;;;;;;3.70;99.90;;;;;;5072846;28;19970;-53
2021/11/21 00:37:17;;;;;;;;;;;3.70;99.90;;;;;;5072752;28;20456;-53
2021/11/21 00:39:44;;;;;;;;;;;3.50;99.90;;;;;;5062346;28;19925;-53
2021/11/21 00:42:14;;;;;;;;;;;3.60;99.90;;;;;;5052312;28;19925;-52
2021/11/21 00:44:41;;;;;;;;;;;3.50;99.90;;;;;;5057498;28;19925;-53
2021/11/21 00:47:08;;;;;;;;;;;3.50;99.90;;;;;;5060641;28;19986;-54
2021/11/21 00:49:35;;;;;;;;;;;3.50;99.90;;;;;;5069306;28;19925;-53
2021/11/21 00:52:03;;;;;;;;;;;3.50;99.90;;;;;;5081018;28;19932;-55
2021/11/21 00:54:40;;;;;;;;;;;3.60;99.90;;;;;;5081279;28;19928;-53
2021/11/21 00:57:07;;;;;;;;;;;3.60;99.90;;;;;;5081606;28;19930;-54
2021/11/21 00:59:34;;;;;;;;;;;3.50;99.90;;;;;;5076835;28;19931;-55
2021/11/21 01:02:06;;;;;;;;;;;3.50;99.90;;;;;;5075187;28;19924;-54
2021/11/21 01:04:33;;;;;;;;;;;3.50;99.90;;;;;;5075508;28;19978;-54
2021/11/21 01:06:59;;;;;;;;;;;3.50;99.90;;;;;;5075482;28;19924;-54
2021/11/21 01:09:28;;;;;;;;;;;3.60;99.90;;;;;;5069778;28;19936;-55
2021/11/21 01:11:57;;;;;;;;;;;3.70;99.90;;;;;;5068818;28;19924;-53
2021/11/21 01:14:23;;;;;;;;;;;3.60;99.90;;;;;;5075793;28;19924;-54
2021/11/21 01:16:50;;;;;;;;;;;3.70;99.90;;;;;;5075727;28;20395;-54
2021/11/21 01:19:17;;;;;;;;;;;3.40;99.90;;;;;;5075292;28;20267;-54
2021/11/21 01:21:44;;;;;;;;;;;3.30;99.90;;;;;;5065052;28;19925;-52
2021/11/21 01:24:11;;;;;;;;;;;3.20;99.90;;;;;;5052226;28;19932;-53
2021/11/21 01:26:39;;;;;;;;;;;3.10;99.90;;;;;;5052208;28;20302;-53
2021/11/21 01:29:06;;;;;;;;;;;3.00;99.90;;;;;;5055014;28;20348;-53
2021/11/21 01:31:32;;;;;;;;;;;3.00;99.90;;;;;;5071477;28;19931;-54
2021/11/21 01:33:59;;;;;;;;;;;3.20;99.90;;;;;;5071792;28;20360;-53
2021/11/21 01:36:26;;;;;;;;;;;3.30;99.90;;;;;;5072148;28;19970;-53
2021/11/21 01:38:53;;;;;;;;;;;3.20;99.90;;;;;;5071149;28;19924;-54
2021/11/21 01:41:20;;;;;;;;;;;3.20;99.90;;;;;;5071713;28;19982;-53
2021/11/21 01:43:48;;;;;;;;;;;3.20;99.90;;;;;;5071956;28;20015;-54
2021/11/21 01:46:15;;;;;;;;;;;3.00;99.90;;;;;;5071756;28;20002;-53
2021/11/21 01:48:42;;;;;;;;;;;2.90;99.90;;;;;;5071815;28;19931;-54
2021/11/21 01:51:10;;;;;;;;;;;3.00;99.90;;;;;;5070941;28;19928;-53
2021/11/21 01:53:37;;;;;;;;;;;3.10;99.90;;;;;;5072066;28;19924;-54
2021/11/21 01:56:04;;;;;;;;;;;3.40;99.90;;;;;;5075467;28;19986;-53
2021/11/21 01:58:31;;;;;;;;;;;3.40;99.90;;;;;;5075532;28;20394;-54
2021/11/21 02:01:00;;;;;;;;;;;3.10;99.90;;;;;;5074822;28;19924;-53
2021/11/21 02:03:26;;;;;;;;;;;2.90;99.90;;;;;;5075366;28;19978;-53
2021/11/21 02:05:53;;;;;;;;;;;2.80;99.90;;;;;;5075459;28;20410;-53
2021/11/21 02:08:20;;;;;;;;;;;2.90;99.90;;;;;;5075184;28;19974;-54
2021/11/21 02:10:47;;;;;;;;;;;2.80;99.90;;;;;;5074429;28;19936;-53
2021/11/21 02:13:14;;;;;;;;;;;2.70;99.90;;;;;;5075335;28;19978;-54
2021/11/21 02:15:43;;;;;;;;;;;2.80;99.90;;;;;;5060177;28;19928;-55
2021/11/21 02:18:13;;;;;;;;;;;2.80;99.90;;;;;;5055327;28;19924;-54
2021/11/21 02:20:55;;;;;;;;;;;2.80;99.90;;;;;;5055101;28;19925;-54
2021/11/21 02:23:23;;;;;;;;;;;2.80;99.90;;;;;;5056120;28;19925;-54
2021/11/21 02:25:49;;;;;;;;;;;2.70;99.90;;;;;;5055521;28;20330;-54
2021/11/21 02:28:16;;;;;;;;;;;2.50;99.90;;;;;;5074923;28;19928;-53
2021/11/21 02:30:44;;;;;;;;;;;2.50;99.90;;;;;;5074570;28;19928;-55
2021/11/21 02:33:11;;;;;;;;;;;2.60;99.90;;;;;;5075097;28;19925;-54
2021/11/21 02:35:39;;;;;;;;;;;2.70;99.90;;;;;;5075105;28;19925;-52
2021/11/21 02:38:08;;;;;;;;;;;2.70;99.90;;;;;;5074255;28;20011;-54
2021/11/21 02:40:35;;;;;;;;;;;2.80;99.90;;;;;;5074613;28;19928;-53
2021/11/21 02:43:02;;;;;;;;;;;3.00;99.90;;;;;;5074915;28;20001;-55
2021/11/21 02:45:28;;;;;;;;;;;3.00;99.90;;;;;;5074660;28;19986;-54
2021/11/21 02:47:55;;;;;;;;;;;3.00;99.90;;;;;;5057488;28;20424;-53
2021/11/21 02:50:23;;;;;;;;;;;3.20;99.90;;;;;;5054479;28;19929;-55
2021/11/21 02:52:50;;;;;;;;;;;3.10;99.90;;;;;;5054595;28;19924;-54
2021/11/21 02:55:19;;;;;;;;;;;2.90;99.90;;;;;;5060484;28;19928;-53
2021/11/21 02:57:46;;;;;;;;;;;2.80;99.90;;;;;;5073500;28;19924;-55
2021/11/21 03:00:15;;;;;;;;;;;2.80;99.90;;;;;;5074522;28;19924;-58
2021/11/21 03:02:43;;;;;;;;;;;2.80;99.90;;;;;;5074331;28;19994;-54
2021/11/21 03:05:10;;;;;;;;;;;3.00;99.90;;;;;;5073788;28;20402;-55
2021/11/21 03:07:37;;;;;;;;;;;2.90;99.90;;;;;;5073085;28;20286;-53
2021/11/21 03:10:04;;;;;;;;;;;2.90;99.90;;;;;;5074303;28;19924;-53
2021/11/21 03:12:32;;;;;;;;;;;2.90;99.90;;;;;;5073704;28;19924;-54
2021/11/21 03:14:59;;;;;;;;;;;3.10;99.90;;;;;;5074308;28;19970;-53
2021/11/21 03:17:26;;;;;;;;;;;3.00;99.90;;;;;;5073158;28;19925;-54
2021/11/21 03:19:53;;;;;;;;;;;3.00;99.90;;;;;;5074045;28;19924;-54
2021/11/21 03:22:19;;;;;;;;;;;2.90;99.90;;;;;;5074048;28;19929;-52
2021/11/21 03:24:46;;;;;;;;;;;3.00;99.90;;;;;;5074250;28;19924;-55
2021/11/21 03:27:14;;;;;;;;;;;3.00;99.90;;;;;;5072903;28;19978;-53
2021/11/21 03:29:42;;;;;;;;;;;3.10;99.90;;;;;;5074035;28;19966;-55
2021/11/21 03:32:09;;;;;;;;;;;3.00;99.90;;;;;;5073674;28;20390;-55
2021/11/21 03:34:38;;;;;;;;;;;3.00;99.90;;;;;;5073830;28;19924;-53
2021/11/21 03:37:05;;;;;;;;;;;2.80;99.90;;;;;;5063821;28;20115;-53
2021/11/21 03:39:31;;;;;;;;;;;2.90;99.90;;;;;;5060436;28;20390;-54
2021/11/21 03:41:58;;;;;;;;;;;2.80;99.90;;;;;;5073385;28;19974;-53
2021/11/21 03:44:25;;;;;;;;;;;2.80;99.90;;;;;;5073786;28;19972;-54
2021/11/21 03:46:53;;;;;;;;;;;2.80;99.90;;;;;;5072756;28;19986;-54
2021/11/21 03:49:20;;;;;;;;;;;2.80;99.90;;;;;;5073244;28;19970;-54
2021/11/21 03:51:47;;;;;;;;;;;2.80;99.90;;;;;;5073209;28;19986;-53
2021/11/21 03:54:13;;;;;;;;;;;2.80;99.90;;;;;;5073647;28;19924;-53
2021/11/21 03:56:41;;;;;;;;;;;2.90;99.90;;;;;;5071822;28;19970;-53
2021/11/21 03:59:08;;;;;;;;;;;2.90;99.90;;;;;;5073473;28;20417;-54
2021/11/21 04:01:34;;;;;;;;;;;2.80;99.90;;;;;;5074195;28;19925;-52
2021/11/21 04:04:05;;;;;;;;;;;2.80;99.90;;;;;;5073252;28;19986;-53
2021/11/21 04:06:32;;;;;;;;;;;2.80;99.90;;;;;;5073263;28;19924;-53
2021/11/21 04:08:59;;;;;;;;;;;2.80;99.90;;;;;;5057254;28;19931;-51
2021/11/21 04:11:26;;;;;;;;;;;2.80;99.90;;;;;;5052931;28;19924;-53
2021/11/21 04:13:52;;;;;;;;;;;2.90;99.90;;;;;;5053016;28;19932;-52
2021/11/21 04:16:19;;;;;;;;;;;2.90;99.90;;;;;;5072526;28;19924;-54
2021/11/21 04:18:46;;;;;;;;;;;2.90;99.90;;;;;;5072852;28;19978;-54
2021/11/21 04:21:14;;;;;;;;;;;2.90;99.90;;;;;;5072834;28;19924;-52
2021/11/21 04:23:41;;;;;;;;;;;3.00;99.90;;;;;;5072969;28;20027;-53
2021/11/21 04:26:09;;;;;;;;;;;3.00;99.90;;;;;;5055705;28;19975;-53
2021/11/21 04:28:37;;;;;;;;;;;3.10;99.90;;;;;;5073114;28;20018;-53
2021/11/21 04:31:04;;;;;;;;;;;2.70;99.90;;;;;;5118921;22;19932;-50
2021/11/21 04:33:31;;;;;;;;;;;2.70;99.90;;;;;;5113077;28;19963;-49
2021/11/21 04:35:58;;;;;;;;;;;2.80;99.90;;;;;;5113110;28;20385;-50
2021/11/21 04:38:26;;;;;;;;;;;2.70;99.90;;;;;;5113525;28;19928;-50
2021/11/21 04:40:53;;;;;;;;;;;2.70;99.90;;;;;;5112299;28;19980;-50
2021/11/21 04:43:20;;;;;;;;;;;2.90;99.90;;;;;;5112718;28;19969;-50
2021/11/21 04:45:48;;;;;;;;;;;2.90;99.90;;;;;;5112920;28;19923;-49
2021/11/21 04:48:15;;;;;;;;;;;2.90;99.90;;;;;;5113098;28;19928;-50
2021/11/21 04:50:42;;;;;;;;;;;3.00;99.90;;;;;;5112672;28;20393;-50
2021/11/21 04:53:08;;;;;;;;;;;2.70;99.90;;;;;;5112576;28;19924;-51
2021/11/21 04:55:37;;;;;;;;;;;2.80;99.90;;;;;;5112813;28;20399;-50
2021/11/21 04:58:04;;;;;;;;;;;2.90;99.90;;;;;;5112964;28;19977;-49
2021/11/21 05:00:31;;;;;;;;;;;3.00;99.90;;;;;;5112488;28;20392;-51
2021/11/21 05:02:57;;;;;;;;;;;3.00;99.90;;;;;;5112205;28;20285;-50
2021/11/21 05:05:24;;;;;;;;;;;3.10;99.90;;;;;;5112684;28;20397;-50
2021/11/21 05:07:52;;;;;;;;;;;3.20;99.90;;;;;;5112641;28;19985;-50
2021/11/21 05:10:19;;;;;;;;;;;3.10;99.90;;;;;;5112600;28;20298;-50
2021/11/21 05:12:49;;;;;;;;;;;2.90;99.90;;;;;;5111969;28;19928;-51
2021/11/21 05:15:18;;;;;;;;;;;2.80;99.90;;;;;;5112551;28;20393;-50
2021/11/21 05:17:46;;;;;;;;;;;2.90;99.90;;;;;;5112639;28;19931;-50
2021/11/21 05:20:13;;;;;;;;;;;2.80;99.90;;;;;;5112332;28;19931;-53
2021/11/21 05:22:40;;;;;;;;;;;2.70;99.90;;;;;;5112357;28;19946;-50
2021/11/21 05:25:07;;;;;;;;;;;2.60;99.90;;;;;;5112634;28;19976;-50
2021/11/21 05:27:34;;;;;;;;;;;2.70;99.90;;;;;;5112679;28;19931;-50
2021/11/21 05:30:02;;;;;;;;;;;2.70;99.90;;;;;;5115100;28;19924;-51
2021/11/21 05:32:29;;;;;;;;;;;2.60;99.90;;;;;;5116150;28;20397;-51
2021/11/21 05:34:55;;;;;;;;;;;2.50;99.90;;;;;;5116561;28;19931;-50
2021/11/21 05:37:22;;;;;;;;;;;2.60;99.90;;;;;;5116639;28;19927;-50
2021/11/21 05:39:49;;;;;;;;;;;2.60;99.90;;;;;;5116547;28;20390;-50
2021/11/21 05:42:16;;;;;;;;;;;2.60;99.90;;;;;;5116040;27;19963;-50
2021/11/21 05:44:42;;;;;;;;;;;2.70;99.90;;;;;;5115227;28;19924;-49
2021/11/21 05:47:11;;;;;;;;;;;2.80;99.90;;;;;;5116343;28;19976;-50
2021/11/21 05:49:37;;;;;;;;;;;2.70;99.90;;;;;;5116422;28;19949;-50
2021/11/21 05:52:04;;;;;;;;;;;2.70;99.90;;;;;;5115758;28;19969;-50
2021/11/21 05:54:31;;;;;;;;;;;2.70;99.90;;;;;;5115842;28;19923;-49
2021/11/21 05:56:58;;;;;;;;;;;2.60;99.90;;;;;;5116272;28;20446;-49
2021/11/21 05:59:25;;;;;;;;;;;2.50;99.90;;;;;;5116275;28;20454;-49
2021/11/21 06:01:51;;;;;;;;;;;2.40;99.90;;;;;;5115799;28;19924;-50
2021/11/21 06:04:20;;;;;;;;;;;2.50;99.90;;;;;;5115899;28;19923;-50
2021/11/21 06:06:46;;;;;;;;;;;2.50;99.90;;;;;;5116140;28;19952;-50
2021/11/21 06:09:13;;;;;;;;;;;2.40;99.90;;;;;;5115992;28;20306;-51
2021/11/21 06:11:40;;;;;;;;;;;2.50;99.90;;;;;;5115742;28;19993;-50
2021/11/21 06:14:07;;;;;;;;;;;2.60;99.90;;;;;;5115980;28;20348;-50
2021/11/21 06:16:33;;;;;;;;;;;2.60;99.90;;;;;;5115916;28;20026;-51
2021/11/21 06:19:00;;;;;;;;;;;2.70;99.90;;;;;;5115906;28;19923;-50
2021/11/21 06:21:28;;;;;;;;;;;2.60;99.90;;;;;;5115297;28;19928;-49
2021/11/21 06:23:55;;;;;;;;;;;2.50;99.90;;;;;;5115700;28;19924;-50
2021/11/21 06:26:22;;;;;;;;;;;2.50;99.90;;;;;;5115955;28;19924;-50
2021/11/21 06:28:49;;;;;;;;;;;2.50;99.90;;;;;;5115890;28;19923;-49
2021/11/21 06:31:16;;;;;;;;;;;2.50;99.90;;;;;;5114995;28;19928;-50
2021/11/21 06:33:42;;;;;;;;;;;2.40;99.90;;;;;;5115514;28;19923;-50
2021/11/21 06:36:10;;;;;;;;;;;2.50;99.90;;;;;;5115516;27;19977;-49
2021/11/21 06:38:38;;;;;;;;;;;2.50;99.90;;;;;;5115743;28;19977;-50
2021/11/21 06:41:05;;;;;;;;;;;2.50;99.90;;;;;;5114986;28;19924;-50
2021/11/21 06:43:32;;;;;;;;;;;2.50;99.90;;;;;;5115335;28;20422;-49
2021/11/21 06:45:58;;;;;;;;;;;2.40;99.90;;;;;;5115478;28;19992;-50
2021/11/21 06:48:25;;;;;;;;;;;2.40;99.90;;;;;;5115365;28;20381;-49
2021/11/21 06:50:53;;;;;;;;;;;2.30;99.90;;;;;;5114629;28;19927;-51
2021/11/21 06:53:20;;;;;;;;;;;2.40;99.90;;;;;;5115184;28;19923;-49
2021/11/21 06:55:49;;;;;;;;;;;2.20;99.90;;;;;;5115117;28;19931;-50
2021/11/21 06:58:16;;;;;;;;;;;2.30;99.90;;;;;;5115222;28;19923;-49
2021/11/21 07:00:43;;;;;;;;;;;2.40;99.90;;;;;;5114445;28;19977;-49
2021/11/21 07:03:10;;;;;;;;;;;2.50;99.90;;;;;;5115131;28;19931;-50
2021/11/21 07:05:36;;;;;;;;;;;2.40;99.90;;;;;;5115020;28;19924;-51
2021/11/21 07:08:03;;;;;;;;;;;2.40;99.90;;;;;;5114856;27;20351;-50
2021/11/21 07:10:30;;;;;;;;;;;2.50;99.90;;;;;;5114059;28;19928;-50
2021/11/21 07:12:58;;;;;;;;;;;2.50;99.90;;;;;;5109239;28;19988;-50
2021/11/21 07:15:25;;;;;;;;;;;2.60;99.90;;;;;;5109280;27;19946;-50
2021/11/21 07:17:53;;;;;;;;;;;2.50;99.90;;;;;;5114686;28;20405;-50
2021/11/21 07:20:20;;;;;;;;;;;2.60;99.90;;;;;;5114437;27;19923;-49
2021/11/21 07:22:47;;;;;;;;;;;2.70;99.90;;;;;;5114561;28;20474;-50
2021/11/21 07:25:15;;;;;;;;;;;2.60;99.90;;;;;;5114554;28;19977;-50
2021/11/21 07:27:42;;;;;;;;;;;2.70;99.90;;;;;;5114429;28;20390;-50
2021/11/21 07:30:11;;;;;;;;;;;2.80;99.90;;;;;;5114452;28;20346;-50
2021/11/21 07:32:38;;;;;;;;;;;2.60;99.90;;;;;;5100862;28;19984;-50
2021/11/21 07:35:05;;;;;;;;;;;2.60;99.90;;;;;;5106720;28;19977;-50
2021/11/21 07:37:32;;;;;;;;;;;2.30;99.90;;;;;;5114391;28;19977;-50
2021/11/21 07:39:58;;;;;;;;;;;2.00;99.90;;;;;;5114326;28;20004;-50
2021/11/21 07:42:25;;;;;;;;;;;2.00;99.90;;;;;;5112937;28;19923;-51
2021/11/21 07:44:53;;;;;;;;;;;2.00;99.90;;;;;;5114453;28;19928;-50
2021/11/21 07:47:22;;;;;;;;;;;2.10;99.90;;;;;;5114185;28;19923;-49
2021/11/21 07:49:49;;;;;;;;;;;2.10;99.90;;;;;;5108345;28;20006;-50
2021/11/21 07:52:15;;;;;;;;;;;2.30;99.90;;;;;;5111957;28;19970;-51
2021/11/21 07:54:43;;;;;;;;;;;2.30;99.90;;;;;;5113305;28;19977;-50
2021/11/21 07:57:10;;;;;;;;;;;2.40;99.90;;;;;;5113873;28;19924;-51
2021/11/21 07:59:37;;;;;;;;;;;2.30;99.90;;;;;;5113690;27;19924;-50
2021/11/21 08:02:03;;;;;;;;;;;2.20;99.90;;;;;;5113506;28;20301;-51
2021/11/21 08:04:32;;;;;;;;;;;2.40;99.90;;;;;;5113632;28;19923;-51
2021/11/21 08:06:58;;;;;;;;;;;2.50;99.90;;;;;;5111341;28;19969;-50
2021/11/21 08:09:25;;;;;;;;;;;2.50;99.90;;;;;;5112604;28;20153;-50
2021/11/21 08:11:52;;;;;;;;;;;2.60;99.90;;;;;;5109004;28;20385;-50
2021/11/21 08:14:19;;;;;;;;;;;2.50;99.90;;;;;;5112883;28;20011;-50
2021/11/21 08:16:47;;;;;;;;;;;2.40;99.90;;;;;;5113551;28;19924;-50
2021/11/21 08:19:14;;;;;;;;;;;2.50;99.90;;;;;;5112623;28;19927;-50
2021/11/21 08:21:42;;;;;;;;;;;2.60;99.90;;;;;;5111652;28;19924;-50
2021/11/21 08:24:09;;;;;;;;;;;2.60;99.90;;;;;;5106067;28;19931;-50
2021/11/21 08:26:36;;;;;;;;;;;2.70;99.90;;;;;;5112350;28;19932;-51
2021/11/21 08:29:03;;;;;;;;;;;2.80;99.90;;;;;;5113166;28;19924;-49
2021/11/21 08:31:30;;;;;;;;;;;2.80;99.90;;;;;;5112475;28;20301;-50
2021/11/21 08:33:57;;;;;;;;;;;2.60;99.90;;;;;;5112995;28;20056;-48
2021/11/21 08:36:24;;;;;;;;;;;2.70;99.90;;;;;;5112837;28;19927;-50
2021/11/21 08:38:52;;;;;;;;;;;2.60;99.90;;;;;;5112783;28;19960;-50
2021/11/21 08:41:19;;;;;;;;;;;2.60;99.90;;;;;;5112246;28;19924;-50
2021/11/21 08:43:45;;;;;;;;;;;2.50;99.90;;;;;;5112983;28;19927;-50
2021/11/21 08:46:12;;;;;;;;;;;2.50;99.90;;;;;;5112875;28;20330;-51
2021/11/21 08:48:39;;;;;;;;;;;2.80;99.90;;;;;;5112848;28;19927;-50
2021/11/21 08:51:06;;;;;;;;;;;3.00;99.90;;;;;;5112061;28;19924;-50
2021/11/21 08:53:33;;;;;;;;;;;3.00;99.90;;;;;;5112947;28;19928;-50
2021/11/21 08:56:03;;;;;;;;;;;2.90;99.90;;;;;;5112902;28;20003;-51
2021/11/21 08:58:30;;;;;;;;;;;2.80;99.90;;;;;;5112623;28;20427;-52
2021/11/21 09:00:57;;;;;;;;;;;2.80;99.90;;;;;;5111783;28;20390;-50
2021/11/21 09:03:24;;;;;;;;;;;2.80;99.90;;;;;;5111817;28;19924;-50
2021/11/21 09:05:50;;;;;;;;;;;2.90;99.90;;;;;;5111880;28;20003;-50
2021/11/21 09:08:17;;;;;;;;;;;3.00;99.90;;;;;;5112807;28;19928;-49
2021/11/21 09:10:44;;;;;;;;;;;3.00;99.90;;;;;;5112057;28;19924;-50
2021/11/21 09:13:13;;;;;;;;;;;3.10;99.90;;;;;;5112561;28;19924;-50
2021/11/21 09:15:39;;;;;;;;;;;3.00;99.90;;;;;;5108758;28;20364;-50
2021/11/21 09:18:07;;;;;;;;;;;2.90;99.90;;;;;;5092008;28;20341;-49
2021/11/21 09:20:34;;;;;;;;;;;3.00;99.90;;;;;;5108327;28;19928;-51
2021/11/21 09:23:03;;;;;;;;;;;3.10;99.90;;;;;;5112111;28;19952;-50
2021/11/21 09:25:30;;;;;;;;;;;3.30;99.90;;;;;;5112204;28;20006;-52
2021/11/21 09:27:56;;;;;;;;;;;3.30;99.90;;;;;;5112329;28;19932;-50
2021/11/21 09:30:25;;;;;;;;;;;3.40;99.90;;;;;;5111356;28;19928;-52
2021/11/21 09:32:56;;;;;;;;;;;3.60;99.90;;;;;;5112193;28;20011;-51
2021/11/21 09:35:23;;;;;;;;;;;3.80;99.90;;;;;;5112151;28;19992;-51
2021/11/21 09:37:50;;;;;;;;;;;3.70;99.90;;;;;;5111921;28;19985;-50
2021/11/21 09:40:17;;;;;;;;;;;3.60;99.90;;;;;;5111587;28;19924;-50
2021/11/21 09:42:46;;;;;;;;;;;3.70;99.90;;;;;;5112352;28;19988;-50
2021/11/21 09:45:14;;;;;;;;;;;3.70;99.90;;;;;;5112279;28;19967;-49
2021/11/21 09:47:48;;;;;;;;;;;3.80;99.90;;;;;;5111976;28;19924;-50
2021/11/21 09:50:14;;;;;;;;;;;3.80;99.90;;;;;;5111392;28;19924;-51
2021/11/21 09:52:42;;;;;;;;;;;3.70;99.90;;;;;;5112050;28;19923;-50
2021/11/21 09:55:09;;;;;;;;;;;3.90;99.90;;;;;;5111994;28;20394;-50
2021/11/21 09:57:36;;;;;;;;;;;4.00;99.90;;;;;;5111952;28;19924;-51
2021/11/21 10:00:06;;;;;;;;;;;4.10;99.90;;;;;;5112113;28;20006;-50
2021/11/21 10:02:34;;;;;;;;;;;4.20;99.90;;;;;;5111324;28;19953;-50
2021/11/21 10:05:04;;;;;;;;;;;4.10;99.90;;;;;;5111675;28;19924;-50
2021/11/21 10:07:33;;;;;;;;;;;4.00;99.90;;;;;;5111919;28;19984;-49
2021/11/21 10:10:00;;;;;;;;;;;4.10;99.90;;;;;;5112049;28;20010;-51
2021/11/21 10:12:34;;;;;;;;;;;4.10;99.90;;;;;;5111490;28;19983;-50
2021/11/21 10:15:02;;;;;;;;;;;4.30;99.90;;;;;;5112813;28;19924;-50
2021/11/21 10:17:30;;;;;;;;;;;4.30;99.90;;;;;;5115734;28;19924;-50
2021/11/21 10:20:09;;;;;;;;;;;4.30;99.90;;;;;;5115204;28;19988;-50
2021/11/21 10:23:00;;;;;;;;;;;4.40;99.90;;;;;;5115055;28;19943;-52
2021/11/21 10:25:54;;;;;;;;;;;4.50;99.90;;;;;;5097855;28;20350;-49
2021/11/21 10:28:24;;;;;;;;;;;4.50;99.90;;;;;;5065128;28;19931;-48
2021/11/21 10:31:11;;;;;;;;;;;4.50;99.90;;;;;;5111918;28;20313;-47
2021/11/21 10:33:41;;;;;;;;;;;4.60;99.90;;;;;;5114739;28;19930;-48
2021/11/21 10:36:13;;;;;;;;;;;4.70;99.90;;;;;;5113928;28;19934;-49
2021/11/21 10:38:43;;;;;;;;;;;4.80;99.90;;;;;;5104979;28;19927;-49
2021/11/21 10:41:12;;;;;;;;;;;4.20;99.90;;;;;;5107650;28;19927;-49
2021/11/21 10:43:46;;;;;;;;;;;4.30;99.90;;;;;;5114390;28;20385;-48
2021/11/21 10:46:24;;;;;;;;;;;4.40;99.90;;;;;;5115160;28;19924;-48
2021/11/21 10:48:50;;;;;;;;;;;4.50;99.90;;;;;;5114400;28;19924;-49
2021/11/21 10:51:20;;;;;;;;;;;4.40;99.90;;;;;;5114604;28;19924;-49
2021/11/21 10:53:47;;;;;;;;;;;4.40;99.90;;;;;;5115205;28;20018;-48
2021/11/21 10:56:14;;;;;;;;;;;4.60;99.90;;;;;;5105440;28;19969;-49
2021/11/21 10:58:47;;;;;;;;;;;4.60;99.90;;;;;;5094498;28;19976;-49
2021/11/21 11:01:21;;;;;;;;;;;4.40;99.90;;;;;;5107558;28;19923;-49
2021/11/21 11:04:02;;;;;;;;;;;4.30;99.90;;;;;;5114682;28;19984;-49
2021/11/21 11:06:30;;;;;;;;;;;4.40;99.90;;;;;;5114655;28;19988;-49
2021/11/21 11:09:13;;;;;;;;;;;4.50;99.90;;;;;;5114874;28;19924;-49
2021/11/21 11:11:40;;;;;;;;;;;4.50;99.90;;;;;;5114380;28;19924;-49
2021/11/21 11:14:07;;;;;;;;;;;4.80;99.90;;;;;;5097049;28;19925;-48
2021/11/21 11:16:33;;;;;;;;;;;4.70;99.90;;;;;;5094346;28;19924;-48
2021/11/21 11:19:02;;;;;;;;;;;4.70;99.90;;;;;;5094111;28;20391;-48
2021/11/21 11:21:29;;;;;;;;;;;4.70;99.90;;;;;;5112187;28;19985;-49
2021/11/21 11:23:58;;;;;;;;;;;4.90;99.90;;;;;;5114459;28;19977;-48
2021/11/21 11:26:25;;;;;;;;;;;4.90;99.90;;;;;;5113505;28;20385;-48
2021/11/21 11:28:54;;;;;;;;;;;5.00;99.90;;;;;;5114042;28;19976;-48
2021/11/21 11:31:21;;;;;;;;;;;5.00;99.90;;;;;;5094885;28;19924;-48
2021/11/21 11:33:48;;;;;;;;;;;4.80;99.90;;;;;;5101976;28;19977;-49
2021/11/21 11:36:19;;;;;;;;;;;4.60;99.90;;;;;;5116899;22;19924;-52
2021/11/21 11:38:58;;;;;;;;;;;4.80;99.90;;;;;;5094096;28;19977;-52
2021/11/21 11:41:29;;;;;;;;;;;4.80;99.90;;;;;;5093628;28;19977;-51
2021/11/21 11:43:56;;;;;;;;;;;4.90;99.90;;;;;;5085437;28;19968;-51
2021/11/21 11:46:24;;;;;;;;;;;5.00;99.90;;;;;;5073259;28;19925;-50
2021/11/21 11:48:52;;;;;;;;;;;5.10;99.90;;;;;;5080445;28;19951;-52
2021/11/21 11:51:37;;;;;;;;;;;5.30;99.90;;;;;;5093316;28;20451;-51
2021/11/21 11:54:19;;;;;;;;;;;5.40;99.90;;;;;;5087729;28;19932;-51
2021/11/21 11:56:48;;;;;;;;;;;5.00;99.90;;;;;;5093281;28;19924;-51
2021/11/21 11:59:23;;;;;;;;;;;4.90;99.90;;;;;;5093270;28;19925;-51
2021/11/21 12:01:51;;;;;;;;;;;5.00;99.90;;;;;;5092935;28;20348;-51
2021/11/21 12:04:36;;;;;;;;;;;5.20;99.90;;;;;;5089620;28;19924;-52
2021/11/21 12:07:07;;;;;;;;;;;5.00;99.90;;;;;;5093402;28;19928;-51
2021/11/21 12:09:34;;;;;;;;;;;5.20;99.90;;;;;;5093286;28;19924;-51
2021/11/21 12:12:03;;;;;;;;;;;5.30;99.90;;;;;;5093256;28;19924;-51
2021/11/21 12:14:31;;;;;;;;;;;5.50;99.90;;;;;;5091084;28;19928;-51
2021/11/21 12:16:59;;;;;;;;;;;5.30;99.90;;;;;;5092379;28;19977;-51
2021/11/21 12:19:40;;;;;;;;;;;5.30;99.90;;;;;;5101873;28;19977;-50
2021/11/21 12:22:28;;;;;;;;;;;5.20;99.90;;;;;;5082136;28;20377;-51
2021/11/21 12:24:55;;;;;;;;;;;5.30;99.90;;;;;;5092421;28;19928;-51
2021/11/21 12:27:26;;;;;;;;;;;5.10;99.90;;;;;;5092933;28;19924;-50
2021/11/21 12:30:02;;;;;;;;;;;4.90;99.90;;;;;;5092990;28;19951;-51
2021/11/21 12:32:30;;;;;;;;;;;4.80;99.90;;;;;;5089152;28;19932;-51
2021/11/21 12:34:58;;;;;;;;;;;4.70;99.90;;;;;;5091978;28;20028;-50
2021/11/21 12:37:33;;;;;;;;;;;4.80;99.90;;;;;;5073199;28;19924;-51
2021/11/21 12:40:10;;;;;;;;;;;5.00;99.90;;;;;;5090017;28;19951;-51
2021/11/21 12:42:40;;;;;;;;;;;5.20;99.90;;;;;;5089746;28;19939;-51
2021/11/21 12:45:11;;;;;;;;;;;4.90;99.90;;;;;;5091452;28;19924;-52
2021/11/21 12:47:38;;;;;;;;;;;5.20;99.90;;;;;;5091858;28;20022;-51
2021/11/21 12:50:06;;;;;;;;;;;5.00;99.90;;;;;;5092489;28;19977;-51
2021/11/21 12:52:33;;;;;;;;;;;5.20;99.90;;;;;;5092178;28;19932;-52
2021/11/21 12:55:00;;;;;;;;;;;5.30;99.90;;;;;;5084683;28;19924;-51
2021/11/21 12:57:27;;;;;;;;;;;5.30;99.90;;;;;;5090113;28;19950;-51
2021/11/21 12:59:56;;;;;;;;;;;5.30;99.90;;;;;;5092205;28;20432;-52
2021/11/21 13:02:25;;;;;;;;;;;5.40;99.90;;;;;;5090926;28;20414;-51
2021/11/21 13:04:53;;;;;;;;;;;5.70;99.90;;;;;;5091920;28;20355;-51
2021/11/21 13:07:27;;;;;;;;;;;5.60;99.90;;;;;;5091588;28;19924;-51
2021/11/21 13:10:04;;;;;;;;;;;5.40;99.90;;;;;;5091515;28;19947;-52
2021/11/21 13:12:32;;;;;;;;;;;5.40;99.90;;;;;;5092336;28;19970;-52
2021/11/21 13:15:01;;;;;;;;;;;5.50;99.90;;;;;;5091547;28;19931;-51
2021/11/21 13:17:28;;;;;;;;;;;5.70;99.90;;;;;;5090535;28;19928;-51
2021/11/21 13:20:19;;;;;;;;;;;5.60;99.90;;;;;;5092243;28;20015;-51
2021/11/21 13:22:50;;;;;;;;;;;5.70;99.90;;;;;;5076932;28;20011;-52
2021/11/21 13:25:27;;;;;;;;;;;5.50;99.90;;;;;;5091745;28;19969;-52
2021/11/21 13:27:54;;;;;;;;;;;5.80;99.90;;;;;;5092062;28;20007;-51
2021/11/21 13:30:22;;;;;;;;;;;5.60;99.90;;;;;;5091884;28;20064;-51
2021/11/21 13:32:49;;;;;;;;;;;5.60;99.90;;;;;;5091596;28;19936;-52
2021/11/21 13:35:17;;;;;;;;;;;5.40;99.90;;;;;;5092463;28;19924;-51
2021/11/21 13:37:45;;;;;;;;;;;5.60;99.90;;;;;;5091762;28;19931;-50
2021/11/21 13:40:13;;;;;;;;;;;5.60;99.90;;;;;;5091481;28;20382;-51
2021/11/21 13:42:41;;;;;;;;;;;5.50;99.90;;;;;;5091671;28;20018;-50
2021/11/21 13:45:08;;;;;;;;;;;5.60;99.90;;;;;;5091728;28;19967;-51
2021/11/21 13:47:36;;;;;;;;;;;5.60;99.90;;;;;;5091719;28;19931;-50
2021/11/21 13:50:04;;;;;;;;;;;5.70;99.90;;;;;;5092654;28;20401;-50
2021/11/21 13:52:31;;;;;;;;;;;5.70;99.90;;;;;;5095780;28;19978;-51
2021/11/21 13:54:59;;;;;;;;;;;5.50;99.90;;;;;;5096372;28;19997;-51
2021/11/21 13:57:27;;;;;;;;;;;5.40;99.90;;;;;;5103599;28;19927;-51
2021/11/21 13:59:56;;;;;;;;;;;5.50;99.90;;;;;;5098684;28;19924;-51
2021/11/21 14:02:29;;;;;;;;;;;5.60;99.90;;;;;;5095411;28;19924;-50
2021/11/21 14:04:58;;;;;;;;;;;5.50;99.90;;;;;;5095669;28;19924;-52
2021/11/21 14:07:25;;;;;;;;;;;5.30;99.90;;;;;;5095484;28;20328;-51
2021/11/21 14:09:56;;;;;;;;;;;5.10;99.90;;;;;;5095734;28;19932;-51
2021/11/21 14:12:23;;;;;;;;;;;5.00;99.90;;;;;;5095673;28;19924;-51
2021/11/21 14:15:10;;;;;;;;;;;4.90;99.90;;;;;;5094927;28;19935;-51
2021/11/21 14:17:39;;;;;;;;;;;4.90;99.90;;;;;;5086923;28;19924;-51
2021/11/21 14:20:08;;;;;;;;;;;5.10;99.90;;;;;;5095514;28;20393;-51
2021/11/21 14:22:38;;;;;;;;;;;5.00;99.90;;;;;;5095453;28;19924;-50
2021/11/21 14:25:06;;;;;;;;;;;4.90;99.90;;;;;;5095535;28;19924;-50
2021/11/21 14:27:33;;;;;;;;;;;4.80;99.90;;;;;;5095126;28;19927;-51
2021/11/21 14:30:04;;;;;;;;;;;4.80;99.90;;;;;;5095381;28;19924;-52
2021/11/21 14:32:31;;;;;;;;;;;4.70;99.90;;;;;;5095713;28;19935;-51
2021/11/21 14:34:57;;;;;;;;;;;4.70;99.90;;;;;;5095514;28;19970;-51
2021/11/21 14:37:26;;;;;;;;;;;4.60;99.90;;;;;;5094996;28;19925;-51